Time;durP1;ratioP1;P1;durP2;ratioP2;P2;SDS_P1;SDS_P2;PMS_P1;PMS_P2;Temp;Humidity;BMP_temperature;BMP_pressure;BME280_temperature;BME280_humidity;BME280_pressure;Samples;Min_cycle;Max_cycle;Signal;HPM_P1;HPM_P2
2023/08/18 00:00:00;;;;;;;8.77;4.97;;;17.70;58.80;;;;;;5041454;28;45870;-67
2023/08/18 00:02:26;;;;;;;7.27;4.73;;;17.70;58.80;;;;;;5038764;28;46414;-69
2023/08/18 00:04:53;;;;;;;13.13;5.50;;;17.70;58.80;;;;;;5046621;28;46399;-67
2023/08/18 00:07:18;;;;;;;10.53;5.27;;;17.60;58.70;;;;;;5039956;28;46825;-68
2023/08/18 00:09:44;;;;;;;9.73;5.43;;;17.70;58.80;;;;;;5046403;28;45936;-68
2023/08/18 00:12:10;;;;;;;6.30;4.30;;;17.70;58.80;;;;;;5041127;28;46471;-68
2023/08/18 00:14:36;;;;;;;10.67;4.50;;;17.70;58.80;;;;;;5037023;28;46516;-68
2023/08/18 00:17:02;;;;;;;13.77;5.10;;;17.70;58.80;;;;;;5040337;28;46380;-70
2023/08/18 00:19:28;;;;;;;8.80;4.67;;;17.70;58.80;;;;;;5040227;28;46715;-68
2023/08/18 00:21:53;;;;;;;10.23;4.07;;;17.70;58.80;;;;;;5045362;28;45916;-69
2023/08/18 00:24:19;;;;;;;8.60;4.20;;;17.70;58.80;;;;;;5042645;28;46307;-69
2023/08/18 00:26:45;;;;;;;13.77;4.80;;;17.70;58.80;;;;;;5041305;28;46397;-68
2023/08/18 00:29:12;;;;;;;7.60;4.77;;;17.70;58.80;;;;;;5039845;28;46961;-67
2023/08/18 00:31:37;;;;;;;12.63;4.60;;;17.70;58.80;;;;;;5041750;28;46500;-69
2023/08/18 00:34:04;;;;;;;13.17;5.10;;;17.70;58.80;;;;;;5045646;28;47370;-69
2023/08/18 00:36:31;;;;;;;9.40;4.80;;;17.70;58.80;;;;;;5039052;28;46567;-68
2023/08/18 00:39:02;;;;;;;10.43;4.60;;;17.70;58.80;;;;;;5039248;28;46814;-68
2023/08/18 00:41:28;;;;;;;9.07;4.80;;;17.60;58.80;;;;;;5039879;28;46448;-69
2023/08/18 00:43:53;;;;;;;9.13;4.20;;;17.60;58.80;;;;;;5042090;28;47348;-68
2023/08/18 00:46:20;;;;;;;12.97;4.47;;;17.70;58.80;;;;;;5042377;28;46419;-68
2023/08/18 00:48:45;;;;;;;7.70;4.20;;;17.60;58.70;;;;;;5041516;28;46527;-69
2023/08/18 00:51:11;;;;;;;15.90;3.67;;;17.60;58.70;;;;;;5039625;28;46469;-69
2023/08/18 00:53:41;;;;;;;6.53;3.90;;;17.60;58.70;;;;;;5041679;28;47418;-67
2023/08/18 00:56:10;;;;;;;9.03;3.80;;;17.60;58.70;;;;;;5038393;28;46475;-69
2023/08/18 00:58:36;;;;;;;7.03;3.67;;;17.60;58.70;;;;;;5038580;28;46670;-68
2023/08/18 01:01:02;;;;;;;8.63;4.27;;;17.60;58.70;;;;;;5040348;28;46748;-69
2023/08/18 01:03:29;;;;;;;6.53;3.70;;;17.60;58.70;;;;;;5047998;28;46656;-68
2023/08/18 01:05:54;;;;;;;9.80;4.30;;;17.60;58.70;;;;;;5041973;28;46476;-68
2023/08/18 01:08:20;;;;;;;15.23;3.90;;;17.60;58.70;;;;;;5043008;28;46711;-68
2023/08/18 01:11:25;;;;;;;8.00;3.97;;;17.60;58.70;;;;;;5043490;28;46473;-69
2023/08/18 01:14:19;;;;;;;8.80;3.90;;;17.50;58.60;;;;;;5044485;28;46978;-69
2023/08/18 01:16:53;;;;;;;9.10;3.67;;;17.50;58.60;;;;;;5042466;28;46446;-68
2023/08/18 01:19:21;;;;;;;10.93;4.03;;;17.50;58.60;;;;;;5040116;28;46490;-68
2023/08/18 01:21:53;;;;;;;8.60;4.30;;;17.50;58.60;;;;;;5041728;28;46523;-68
2023/08/18 01:24:19;;;;;;;6.23;3.97;;;17.50;58.60;;;;;;5042806;28;46535;-68
2023/08/18 01:26:45;;;;;;;5.60;4.00;;;17.40;58.50;;;;;;5044971;28;46077;-69
2023/08/18 01:29:11;;;;;;;9.77;4.40;;;17.40;58.50;;;;;;5042571;28;45879;-68
2023/08/18 01:31:37;;;;;;;10.23;4.40;;;17.40;58.50;;;;;;5039988;28;46591;-69
2023/08/18 01:34:07;;;;;;;8.43;3.90;;;17.40;58.50;;;;;;5040531;28;47191;-69
2023/08/18 01:36:38;;;;;;;6.57;4.10;;;17.40;58.50;;;;;;5039565;28;46403;-68
2023/08/18 01:39:06;;;;;;;5.13;4.00;;;17.40;58.50;;;;;;5044814;28;46435;-69
2023/08/18 01:41:32;;;;;;;8.70;4.23;;;17.30;58.40;;;;;;5040677;28;45811;-69
2023/08/18 01:44:00;;;;;;;8.57;4.67;;;17.30;58.40;;;;;;5042911;28;48270;-68
2023/08/18 01:46:25;;;;;;;8.80;4.63;;;17.20;58.30;;;;;;5038002;28;46590;-68
2023/08/18 01:48:51;;;;;;;11.17;5.17;;;17.10;58.30;;;;;;5038843;28;46480;-68
2023/08/18 01:51:17;;;;;;;12.30;5.43;;;17.00;58.10;;;;;;5037316;28;46616;-67
2023/08/18 01:53:42;;;;;;;13.70;6.00;;;17.00;58.10;;;;;;5039153;28;47009;-68
2023/08/18 01:56:08;;;;;;;9.93;5.90;;;16.90;58.00;;;;;;5039187;28;46531;-67
2023/08/18 01:58:33;;;;;;;9.80;5.60;;;16.90;58.00;;;;;;5039308;28;46395;-67
2023/08/18 02:00:59;;;;;;;7.17;5.03;;;16.80;57.90;;;;;;5042642;28;46538;-68
2023/08/18 02:03:26;;;;;;;11.10;5.80;;;16.80;57.90;;;;;;5036906;28;46644;-68
2023/08/18 02:05:53;;;;;;;7.90;5.03;;;16.80;57.90;;;;;;5040299;28;46503;-68
2023/08/18 02:08:19;;;;;;;8.23;5.53;;;16.80;57.90;;;;;;5037407;28;45975;-69
2023/08/18 02:10:44;;;;;;;8.73;5.23;;;16.70;57.80;;;;;;5040890;28;46473;-69
2023/08/18 02:13:10;;;;;;;10.53;5.40;;;16.70;57.80;;;;;;5040854;28;46464;-69
2023/08/18 02:15:35;;;;;;;12.40;5.20;;;16.60;58.20;;;;;;5043608;28;46501;-68
2023/08/18 02:18:01;;;;;;;10.10;6.00;;;16.50;58.50;;;;;;5043310;28;46474;-68
2023/08/18 02:20:26;;;;;;;8.60;6.57;;;16.40;58.70;;;;;;5042972;28;46034;-68
2023/08/18 02:22:52;;;;;;;10.93;6.87;;;16.40;59.00;;;;;;5039363;28;47029;-68
2023/08/18 02:25:18;;;;;;;14.10;5.77;;;16.40;58.80;;;;;;5041553;28;46585;-68
2023/08/18 02:27:43;;;;;;;7.97;5.77;;;16.40;58.90;;;;;;5043037;28;46498;-69
2023/08/18 02:30:09;;;;;;;8.17;5.70;;;16.40;58.70;;;;;;5040301;28;46824;-69
2023/08/18 02:32:35;;;;;;;10.90;6.33;;;16.40;58.60;;;;;;5044765;28;47170;-68
2023/08/18 02:35:01;;;;;;;10.43;6.13;;;16.40;57.60;;;;;;5042470;28;46463;-68
2023/08/18 02:37:27;;;;;;;25.63;6.40;;;16.40;58.60;;;;;;5040250;28;46527;-68
2023/08/18 02:39:53;;;;;;;13.50;7.20;;;16.50;58.60;;;;;;5046092;28;46427;-68
2023/08/18 02:42:19;;;;;;;10.30;6.67;;;16.30;58.40;;;;;;5044683;28;46432;-66
2023/08/18 02:44:46;;;;;;;12.50;7.00;;;16.50;58.50;;;;;;5039742;28;46421;-68
2023/08/18 02:47:13;;;;;;;8.70;6.50;;;16.50;58.60;;;;;;5041156;28;46446;-68
2023/08/18 02:49:39;;;;;;;13.47;6.10;;;16.50;58.50;;;;;;5045005;28;46407;-68
2023/08/18 02:52:05;;;;;;;15.40;6.30;;;16.50;58.70;;;;;;5042209;28;46432;-68
2023/08/18 02:54:30;;;;;;;9.13;6.30;;;16.50;58.80;;;;;;5043051;28;46506;-68
2023/08/18 02:56:56;;;;;;;9.80;5.70;;;16.50;60.00;;;;;;5041081;28;46371;-68
2023/08/18 02:59:21;;;;;;;12.70;6.13;;;16.50;58.90;;;;;;5042924;28;46828;-69
2023/08/18 03:01:47;;;;;;;11.30;5.90;;;16.50;58.90;;;;;;5037021;28;46430;-69
2023/08/18 03:04:15;;;;;;;9.90;5.47;;;16.50;58.80;;;;;;5040426;28;46466;-69
2023/08/18 03:06:41;;;;;;;10.77;6.47;;;16.50;58.90;;;;;;5034272;28;46400;-68
2023/08/18 03:09:07;;;;;;;15.07;6.27;;;16.50;59.00;;;;;;5041137;28;46297;-68
2023/08/18 03:11:33;;;;;;;12.40;6.40;;;16.40;59.00;;;;;;5042421;28;46415;-67
2023/08/18 03:13:59;;;;;;;11.37;6.27;;;16.40;60.30;;;;;;5042965;28;46746;-69
2023/08/18 03:16:24;;;;;;;8.37;5.80;;;16.40;59.40;;;;;;5037380;28;46715;-70
2023/08/18 03:18:50;;;;;;;9.20;6.60;;;16.40;59.40;;;;;;5039328;28;46609;-67
2023/08/18 03:21:16;;;;;;;11.30;6.87;;;16.40;59.70;;;;;;5038208;28;46547;-68
2023/08/18 03:23:41;;;;;;;9.70;6.00;;;16.30;59.70;;;;;;5036362;28;45927;-68
2023/08/18 03:26:07;;;;;;;10.50;6.00;;;16.30;59.70;;;;;;5039409;28;46718;-67
2023/08/18 03:28:35;;;;;;;9.63;6.23;;;16.30;60.90;;;;;;5036284;28;46780;-68
2023/08/18 03:31:02;;;;;;;16.40;6.00;;;16.20;59.90;;;;;;5042491;28;47069;-68
2023/08/18 03:33:29;;;;;;;9.30;6.00;;;16.20;60.10;;;;;;5040249;28;46695;-68
2023/08/18 03:35:54;;;;;;;8.70;5.93;;;16.10;60.10;;;;;;5035079;28;46482;-69
2023/08/18 03:38:24;;;;;;;11.40;6.20;;;16.10;60.10;;;;;;5040551;28;46640;-69
2023/08/18 03:40:56;;;;;;;14.47;6.70;;;16.10;60.10;;;;;;5041525;28;46629;-69
2023/08/18 03:43:21;;;;;;;9.30;5.10;;;16.10;60.10;;;;;;5045908;28;46419;-69
2023/08/18 03:45:47;;;;;;;11.80;5.70;;;16.00;60.10;;;;;;5037869;28;46963;-69
2023/08/18 03:48:13;;;;;;;11.37;5.70;;;16.00;60.10;;;;;;5038296;28;46493;-69
2023/08/18 03:50:39;;;;;;;9.33;6.33;;;16.00;60.20;;;;;;5040561;28;46845;-69
2023/08/18 03:53:05;;;;;;;10.60;6.57;;;16.00;60.20;;;;;;5037140;28;46766;-68
2023/08/18 03:55:30;;;;;;;12.07;7.10;;;16.00;60.10;;;;;;5038636;28;45897;-67
2023/08/18 03:57:56;;;;;;;13.73;6.90;;;16.00;60.00;;;;;;5040770;28;46765;-67
2023/08/18 04:00:21;;;;;;;10.17;7.30;;;16.00;60.00;;;;;;5036646;28;46782;-67
2023/08/18 04:02:47;;;;;;;11.83;6.80;;;16.00;60.00;;;;;;5033956;28;46728;-69
2023/08/18 04:05:13;;;;;;;11.07;5.83;;;16.00;60.00;;;;;;5043872;28;46444;-67
2023/08/18 04:07:39;;;;;;;11.50;5.87;;;15.90;60.00;;;;;;5040755;28;46498;-67
2023/08/18 04:10:06;;;;;;;9.00;5.90;;;15.90;60.10;;;;;;5037625;28;48011;-68
2023/08/18 04:12:31;;;;;;;10.07;5.60;;;15.90;60.10;;;;;;5035107;28;46350;-68
2023/08/18 04:14:57;;;;;;;8.10;5.17;;;15.80;59.30;;;;;;5037964;28;46447;-69
2023/08/18 04:17:23;;;;;;;8.37;5.07;;;15.80;60.20;;;;;;5037096;28;46755;-68
2023/08/18 04:19:48;;;;;;;8.43;5.30;;;15.80;60.30;;;;;;5040487;28;46514;-68
2023/08/18 04:22:14;;;;;;;10.00;6.37;;;15.70;60.40;;;;;;5041084;28;46300;-68
2023/08/18 04:24:39;;;;;;;10.43;6.17;;;15.70;60.40;;;;;;5043999;28;46781;-69
2023/08/18 04:27:05;;;;;;;6.70;5.50;;;15.70;60.30;;;;;;5044972;28;46580;-67
2023/08/18 04:29:30;;;;;;;12.53;5.73;;;15.80;60.10;;;;;;5040366;28;46424;-68
2023/08/18 04:31:56;;;;;;;12.40;6.10;;;15.80;60.30;;;;;;5041256;28;46477;-68
2023/08/18 04:34:22;;;;;;;12.60;6.50;;;15.80;60.20;;;;;;5041955;28;46646;-70
2023/08/18 04:36:47;;;;;;;8.43;5.13;;;15.80;60.00;;;;;;5045034;28;46202;-68
2023/08/18 04:39:13;;;;;;;8.80;5.40;;;15.90;59.90;;;;;;5043252;28;46483;-68
2023/08/18 04:41:39;;;;;;;8.77;5.43;;;16.00;59.70;;;;;;5040674;28;46483;-67
2023/08/18 04:44:05;;;;;;;9.47;5.70;;;16.00;59.60;;;;;;5035756;28;45945;-68
2023/08/18 04:46:31;;;;;;;9.33;5.23;;;16.10;59.50;;;;;;5042526;28;46515;-69
2023/08/18 04:48:57;;;;;;;14.03;5.90;;;16.20;59.30;;;;;;5039609;28;46725;-68
2023/08/18 04:51:23;;;;;;;7.50;5.10;;;16.40;58.90;;;;;;5036725;28;45998;-68
2023/08/18 04:53:49;;;;;;;9.30;5.77;;;16.50;58.60;;;;;;5041259;28;46766;-68
2023/08/18 04:56:15;;;;;;;12.83;5.53;;;16.60;58.30;;;;;;5042770;28;46771;-70
2023/08/18 04:58:41;;;;;;;9.83;5.40;;;16.70;57.90;;;;;;5039412;28;46697;-68
2023/08/18 05:01:07;;;;;;;8.63;5.20;;;16.80;57.90;;;;;;5046040;28;46368;-67
2023/08/18 05:03:33;;;;;;;9.47;4.70;;;16.90;58.00;;;;;;5040390;28;46652;-67
2023/08/18 05:06:10;;;;;;;8.63;5.33;;;17.00;58.10;;;;;;5037526;28;47114;-69
2023/08/18 05:08:37;;;;;;;7.77;4.87;;;17.20;58.30;;;;;;5039334;28;46544;-67
2023/08/18 05:11:05;;;;;;;4.90;3.77;;;17.40;58.50;;;;;;5035764;28;46470;-68
2023/08/18 05:13:31;;;;;;;7.80;4.70;;;17.70;58.00;;;;;;5040502;28;46542;-66
2023/08/18 05:15:59;;;;;;;9.30;3.90;;;18.30;56.50;;;;;;5041005;28;46403;-67
2023/08/18 05:18:26;;;;;;;8.47;4.73;;;18.40;57.30;;;;;;5036062;28;46342;-68
2023/08/18 05:20:51;;;;;;;6.03;3.80;;;18.60;57.00;;;;;;5023647;28;46439;-68
2023/08/18 05:23:17;;;;;;;8.43;3.80;;;18.80;56.70;;;;;;5055922;28;46515;-66
2023/08/18 05:25:48;;;;;;;6.10;3.90;;;19.00;55.50;;;;;;5063951;27;46472;-68
2023/08/18 05:28:14;;;;;;;6.40;3.50;;;19.10;56.40;;;;;;5056456;28;46689;-69
2023/08/18 05:30:47;;;;;;;5.30;3.07;;;19.30;55.80;;;;;;5063440;28;46506;-66
2023/08/18 05:33:13;;;;;;;6.03;3.80;;;19.70;55.20;;;;;;5061146;28;46910;-67
2023/08/18 05:35:38;;;;;;;6.13;3.13;;;20.00;53.30;;;;;;5063043;28;46735;-67
2023/08/18 05:38:10;;;;;;;7.40;3.90;;;20.10;54.40;;;;;;5060472;28;46431;-67
2023/08/18 05:40:46;;;;;;;8.13;4.47;;;20.40;53.90;;;;;;5065731;28;46417;-66
2023/08/18 05:43:14;;;;;;;7.30;3.40;;;20.30;54.10;;;;;;5057626;28;46438;-66
2023/08/18 05:45:40;;;;;;;5.33;3.20;;;20.20;52.90;;;;;;5062762;28;46598;-67
2023/08/18 05:48:06;;;;;;;7.60;3.20;;;20.20;53.80;;;;;;5065370;28;46380;-67
2023/08/18 05:50:32;;;;;;;7.67;3.70;;;20.30;53.50;;;;;;5062795;28;46550;-68
2023/08/18 05:53:00;;;;;;;7.40;3.60;;;20.30;53.10;;;;;;5055369;28;46477;-69
2023/08/18 05:55:27;;;;;;;8.13;3.60;;;20.20;51.60;;;;;;5056579;27;46501;-67
2023/08/18 05:57:53;;;;;;;7.87;3.83;;;20.20;52.50;;;;;;5059064;28;46546;-67
2023/08/18 06:00:20;;;;;;;9.00;3.40;;;20.00;52.80;;;;;;5063288;28;46413;-66
2023/08/18 06:02:46;;;;;;;6.53;3.60;;;19.80;53.30;;;;;;5062172;28;45904;-69
2023/08/18 06:05:11;;;;;;;6.90;3.87;;;19.90;51.60;;;;;;5062611;28;46465;-67
2023/08/18 06:07:41;;;;;;;14.47;4.10;;;19.90;52.50;;;;;;5062414;28;46526;-67
2023/08/18 06:10:08;;;;;;;5.13;3.30;;;19.80;52.80;;;;;;5058837;28;46414;-67
2023/08/18 06:12:33;;;;;;;6.27;3.83;;;20.00;50.80;;;;;;5069329;22;46386;-71
2023/08/18 06:14:59;;;;;;;7.93;3.73;;;20.10;49.90;;;;;;5053557;28;46698;-72
2023/08/18 06:17:25;;;;;;;6.23;3.10;;;20.10;50.70;;;;;;5055603;28;47872;-73
2023/08/18 06:20:00;;;;;;;8.73;3.73;;;20.20;50.30;;;;;;5057294;28;46558;-71
2023/08/18 06:22:26;;;;;;;15.30;3.60;;;20.30;48.40;;;;;;5076699;28;46149;-72
2023/08/18 06:24:54;;;;;;;4.20;3.10;;;20.50;47.10;;;;;;5066959;28;46387;-71
2023/08/18 06:27:20;;;;;;;5.97;3.47;;;20.50;48.10;;;;;;5064797;27;48302;-68
2023/08/18 06:29:45;;;;;;;7.63;3.90;;;20.70;47.70;;;;;;5058598;28;46236;-69
2023/08/18 06:32:11;;;;;;;6.40;3.40;;;20.90;46.20;;;;;;5043004;28;45875;-69
2023/08/18 06:34:37;;;;;;;6.03;3.50;;;21.10;45.70;;;;;;5056552;28;46871;-72
2023/08/18 06:37:03;;;;;;;6.57;3.80;;;21.00;45.10;;;;;;5059455;28;47479;-70
2023/08/18 06:39:28;;;;;;;7.10;3.70;;;21.10;46.20;;;;;;5062406;28;46431;-69
2023/08/18 06:41:54;;;;;;;5.53;3.80;;;21.10;46.00;;;;;;5060931;28;46487;-69
2023/08/18 06:44:20;;;;;;;10.13;4.20;;;21.10;45.40;;;;;;5061064;27;46767;-71
2023/08/18 06:46:46;;;;;;;10.00;3.80;;;21.20;43.80;;;;;;5058085;27;46721;-69
2023/08/18 06:49:12;;;;;;;7.07;3.80;;;21.40;44.10;;;;;;5060195;28;46470;-70
2023/08/18 06:51:38;;;;;;;9.33;4.47;;;21.70;43.10;;;;;;5057667;28;45982;-70
2023/08/18 06:54:04;;;;;;;6.00;3.47;;;22.00;41.10;;;;;;5058282;28;46760;-71
2023/08/18 06:56:29;;;;;;;5.00;3.67;;;22.00;40.00;;;;;;5066491;28;46447;-70
2023/08/18 06:58:55;;;;;;;7.73;4.07;;;21.80;40.50;;;;;;5060468;28;46440;-72
2023/08/18 07:01:21;;;;;;;5.00;3.80;;;21.70;42.20;;;;;;5056934;28;46189;-70
2023/08/18 07:03:48;;;;;;;7.90;3.60;;;21.70;42.70;;;;;;5062975;28;46479;-68
2023/08/18 07:06:14;;;;;;;5.27;3.47;;;21.90;41.90;;;;;;5054429;28;46506;-69
2023/08/18 07:08:40;;;;;;;5.70;3.80;;;21.90;42.70;;;;;;5063839;28;46503;-69
2023/08/18 07:11:06;;;;;;;6.90;4.60;;;22.10;42.70;;;;;;5063215;28;46450;-70
2023/08/18 07:13:31;;;;;;;6.53;4.57;;;22.20;42.50;;;;;;5061771;28;46608;-69
2023/08/18 07:15:57;;;;;;;6.40;4.30;;;22.10;42.10;;;;;;5064903;27;48127;-72
2023/08/18 07:18:23;;;;;;;9.23;3.90;;;22.10;43.20;;;;;;5060673;28;46674;-71
2023/08/18 07:20:49;;;;;;;5.03;3.67;;;22.10;43.50;;;;;;5057779;28;46548;-71
2023/08/18 07:23:15;;;;;;;6.27;3.90;;;22.30;42.00;;;;;;5061699;28;46459;-72
2023/08/18 07:25:41;;;;;;;5.83;3.63;;;22.50;41.80;;;;;;5052603;28;46286;-68
2023/08/18 07:28:07;;;;;;;8.30;4.03;;;22.60;42.70;;;;;;5059706;28;46533;-71
2023/08/18 07:30:33;;;;;;;8.03;3.60;;;22.80;41.60;;;;;;5059335;28;46436;-72
2023/08/18 07:32:58;;;;;;;5.70;3.30;;;22.70;42.20;;;;;;5060986;28;45899;-70
2023/08/18 07:35:24;;;;;;;5.63;3.93;;;22.80;40.90;;;;;;5059921;27;46931;-68
2023/08/18 07:37:51;;;;;;;5.43;3.57;;;22.80;42.00;;;;;;5062030;28;46826;-71
2023/08/18 07:40:16;;;;;;;8.60;3.10;;;22.90;41.00;;;;;;5059871;28;46839;-70
2023/08/18 07:42:44;;;;;;;6.60;3.90;;;22.90;42.00;;;;;;5060737;28;46444;-71
2023/08/18 07:45:10;;;;;;;9.23;3.90;;;22.80;40.30;;;;;;5060683;28;48349;-71
2023/08/18 07:47:40;;;;;;;6.90;4.10;;;22.80;41.40;;;;;;5060964;28;46244;-67
2023/08/18 07:50:08;;;;;;;6.30;3.83;;;22.90;41.40;;;;;;5049227;28;46514;-66
2023/08/18 07:52:34;;;;;;;10.07;3.63;;;22.90;41.80;;;;;;5061206;28;46505;-71
2023/08/18 07:55:01;;;;;;;7.27;3.40;;;23.20;40.50;;;;;;5058379;28;46541;-70
2023/08/18 07:57:27;;;;;;;5.70;3.33;;;23.20;41.20;;;;;;5064071;28;45986;-68
2023/08/18 07:59:53;;;;;;;5.53;3.30;;;23.30;40.70;;;;;;5051246;28;46430;-70
2023/08/18 08:02:18;;;;;;;6.80;3.63;;;23.20;40.60;;;;;;5068097;28;46881;-67
2023/08/18 08:04:44;;;;;;;6.00;4.20;;;23.10;40.40;;;;;;5061930;28;46119;-67
2023/08/18 08:07:10;;;;;;;8.20;3.60;;;23.10;39.30;;;;;;5060132;28;46452;-69
2023/08/18 08:09:35;;;;;;;6.40;3.50;;;23.40;40.20;;;;;;5062812;28;46402;-68
2023/08/18 08:12:02;;;;;;;8.40;3.93;;;23.60;39.20;;;;;;5061435;28;46708;-67
2023/08/18 08:14:27;;;;;;;7.93;2.80;;;23.70;38.50;;;;;;5060826;28;46537;-67
2023/08/18 08:16:53;;;;;;;6.53;4.03;;;24.00;36.60;;;;;;5061024;28;46423;-71
2023/08/18 08:19:19;;;;;;;4.67;3.30;;;24.00;37.70;;;;;;5058207;28;46463;-70
2023/08/18 08:21:44;;;;;;;6.07;3.87;;;24.00;37.70;;;;;;5061237;28;45946;-68
2023/08/18 08:24:10;;;;;;;5.40;2.70;;;24.10;37.90;;;;;;5061698;28;47012;-66
2023/08/18 08:26:36;;;;;;;3.60;2.70;;;24.20;36.10;;;;;;5062745;28;46481;-70
2023/08/18 08:29:01;;;;;;;4.37;2.50;;;24.30;36.60;;;;;;5058858;28;46493;-70
2023/08/18 08:31:27;;;;;;;6.90;2.77;;;24.50;35.60;;;;;;5064303;28;46462;-67
2023/08/18 08:33:53;;;;;;;5.93;2.90;;;24.70;35.00;;;;;;5046118;28;46820;-70
2023/08/18 08:36:18;;;;;;;6.93;3.23;;;24.80;33.10;;;;;;5068638;27;46434;-69
2023/08/18 08:38:44;;;;;;;5.77;3.73;;;25.00;34.30;;;;;;5060045;28;46442;-70
2023/08/18 08:41:10;;;;;;;5.10;3.10;;;24.60;34.00;;;;;;5061517;28;46541;-67
2023/08/18 08:43:36;;;;;;;6.13;2.97;;;24.60;33.20;;;;;;5064626;28;47003;-68
2023/08/18 08:46:02;;;;;;;5.93;2.40;;;24.60;32.80;;;;;;5060641;28;45823;-69
2023/08/18 08:48:45;;;;;;;4.90;2.70;;;24.60;33.80;;;;;;5063348;28;46454;-67
2023/08/18 08:51:12;;;;;;;6.57;3.47;;;24.80;33.30;;;;;;5059702;28;46478;-69
2023/08/18 08:53:42;;;;;;;4.23;3.00;;;24.80;33.60;;;;;;5059385;28;46573;-68
2023/08/18 08:56:09;;;;;;;5.33;3.47;;;24.90;32.10;;;;;;5060818;27;46492;-68
2023/08/18 08:58:36;;;;;;;6.60;3.03;;;24.80;33.20;;;;;;5059863;28;46794;-72
2023/08/18 09:01:02;;;;;;;8.77;3.20;;;24.80;33.20;;;;;;5061837;28;46189;-71
2023/08/18 09:03:28;;;;;;;4.30;2.50;;;24.80;32.80;;;;;;5065217;28;46442;-69
2023/08/18 09:05:55;;;;;;;4.10;2.70;;;25.00;31.60;;;;;;5059899;27;45902;-70
2023/08/18 09:08:21;;;;;;;4.73;2.90;;;25.10;32.40;;;;;;5059243;28;46689;-75
2023/08/18 09:10:47;;;;;;;4.67;2.63;;;25.20;31.80;;;;;;5061516;28;46920;-69
2023/08/18 09:13:13;;;;;;;4.70;2.67;;;25.50;31.20;;;;;;5063577;28;47917;-70
2023/08/18 09:15:44;;;;;;;4.47;3.00;;;25.70;29.50;;;;;;5058445;28;46472;-72
2023/08/18 09:18:12;;;;;;;7.97;3.00;;;;;;;;;;5063172;28;46329;-70
2023/08/18 09:20:38;;;;;;;4.10;2.70;;;25.40;29.80;;;;;;5064572;28;46559;-70
2023/08/18 09:23:04;;;;;;;6.00;2.47;;;25.30;31.10;;;;;;5063026;28;46572;-72
2023/08/18 09:25:36;;;;;;;11.33;1.90;;;25.40;29.70;;;;;;5069370;28;46557;-70
2023/08/18 09:28:03;;;;;;;4.43;2.80;;;25.30;30.00;;;;;;5067711;28;46575;-71
2023/08/18 09:30:30;;;;;;;6.27;2.83;;;25.50;30.00;;;;;;5061877;28;46480;-71
2023/08/18 09:32:59;;;;;;;6.33;2.70;;;25.50;29.60;;;;;;5058802;28;45951;-67
2023/08/18 09:35:25;;;;;;;7.90;2.90;;;25.60;28.60;;;;;;5059851;28;46538;-71
2023/08/18 09:37:57;;;;;;;4.87;2.80;;;25.70;29.50;;;;;;5059260;28;46522;-69
2023/08/18 09:40:24;;;;;;;9.30;2.30;;;25.80;28.40;;;;;;5060619;28;46503;-69
2023/08/18 09:42:50;;;;;;;4.30;2.70;;;26.00;28.60;;;;;;5060717;28;47317;-70
2023/08/18 09:45:16;;;;;;;4.77;2.43;;;26.30;26.70;;;;;;5062025;28;46685;-72
2023/08/18 09:47:45;;;;;;;5.93;2.33;;;26.30;26.90;;;;;;5066146;28;46735;-70
2023/08/18 09:50:13;;;;;;;5.47;2.37;;;26.20;26.60;;;;;;5051336;28;46417;-69
2023/08/18 09:52:42;;;;;;;3.83;1.87;;;26.30;26.70;;;;;;5061721;28;47931;-68
2023/08/18 09:55:13;;;;;;;4.43;2.50;;;26.40;24.90;;;;;;5060247;28;45816;-72
2023/08/18 09:58:17;;;;;;;3.60;1.80;;;26.40;24.60;;;;;;5061716;28;46471;-68
2023/08/18 10:00:45;;;;;;;5.30;1.87;;;26.60;23.80;;;;;;4991600;28;46646;-68
2023/08/18 10:03:17;;;;;;;3.50;1.50;;;26.80;23.30;;;;;;5070017;27;49067;-69
2023/08/18 10:05:44;;;;;;;3.17;1.87;;;27.10;21.80;;;;;;5060214;28;46542;-68
2023/08/18 10:08:10;;;;;;;5.73;1.87;;;27.10;22.30;;;;;;5063928;28;46559;-68
2023/08/18 10:10:36;;;;;;;4.07;1.73;;;27.00;20.30;;;;;;5064322;28;46604;-68
2023/08/18 10:13:05;;;;;;;4.67;1.63;;;26.90;20.10;;;;;;5057968;28;46229;-67
2023/08/18 10:15:31;;;;;;;3.47;1.77;;;27.10;19.10;;;;;;5065240;28;46524;-67
2023/08/18 10:17:57;;;;;;;5.63;2.00;;;27.10;19.60;;;;;;5057258;28;46447;-68
2023/08/18 10:20:26;;;;;;;6.13;1.60;;;27.10;19.20;;;;;;5058987;27;46413;-69
2023/08/18 10:22:54;;;;;;;5.50;2.00;;;27.20;19.00;;;;;;5044392;28;47287;-68
2023/08/18 10:25:29;;;;;;;3.60;1.40;;;27.40;18.10;;;;;;5042425;28;46486;-71
2023/08/18 10:27:56;;;;;;;2.83;1.77;;;27.50;17.30;;;;;;5060612;28;46756;-70
2023/08/18 10:30:28;;;;;;;5.20;1.70;;;27.50;18.10;;;;;;5066247;28;46394;-67
2023/08/18 10:33:06;;;;;;;3.27;1.60;;;27.50;17.50;;;;;;5059542;28;47486;-69
2023/08/18 10:35:33;;;;;;;9.30;1.90;;;27.70;16.80;;;;;;5057286;28;46399;-70
2023/08/18 10:38:04;;;;;;;3.20;2.00;;;27.70;17.50;;;;;;5072637;27;46938;-68
2023/08/18 10:40:37;;;;;;;4.20;2.07;;;27.70;16.40;;;;;;5060432;28;46406;-68
2023/08/18 10:43:13;;;;;;;3.40;2.00;;;27.70;16.40;;;;;;5062399;28;46691;-72
2023/08/18 10:45:40;;;;;;;3.67;1.67;;;27.80;16.00;;;;;;5065195;28;46450;-69
2023/08/18 10:48:06;;;;;;;3.40;1.80;;;27.90;15.60;;;;;;5056388;28;46565;-72
2023/08/18 10:50:35;;;;;;;3.70;1.77;;;27.90;16.50;;;;;;5061130;28;46407;-68
2023/08/18 10:53:01;;;;;;;3.40;2.13;;;28.10;16.50;;;;;;5058987;28;46423;-68
2023/08/18 10:55:30;;;;;;;5.10;1.50;;;28.20;15.80;;;;;;5058484;28;46476;-68
2023/08/18 10:57:59;;;;;;;3.70;2.10;;;28.20;16.60;;;;;;5060398;28;46462;-67
2023/08/18 11:00:26;;;;;;;5.53;2.17;;;28.30;15.90;;;;;;5062083;28;46829;-68
2023/08/18 11:02:52;;;;;;;3.03;1.90;;;28.30;15.70;;;;;;5055758;28;46482;-69
2023/08/18 11:05:19;;;;;;;4.80;1.60;;;28.50;14.40;;;;;;5058693;28;46092;-71
2023/08/18 11:07:45;;;;;;;3.80;2.40;;;28.50;15.00;;;;;;5059532;28;46739;-68
2023/08/18 11:10:15;;;;;;;5.90;2.00;;;28.60;14.80;;;;;;5059631;28;46757;-69
2023/08/18 11:12:42;;;;;;;7.83;2.10;;;28.70;12.90;;;;;;5056021;28;48319;-67
2023/08/18 11:15:08;;;;;;;3.73;1.90;;;28.40;12.80;;;;;;5063695;28;46424;-71
2023/08/18 11:17:33;;;;;;;3.50;1.73;;;28.40;13.30;;;;;;5058163;28;46525;-69
2023/08/18 11:19:59;;;;;;;4.10;1.73;;;28.40;13.50;;;;;;5061888;28;46509;-67
2023/08/18 11:22:26;;;;;;;4.83;2.10;;;28.50;13.50;;;;;;5064856;28;46174;-68
2023/08/18 11:24:52;;;;;;;3.80;2.03;;;28.70;12.70;;;;;;5057427;28;46785;-68
2023/08/18 11:27:19;;;;;;;4.50;1.80;;;28.60;13.20;;;;;;5059428;28;46262;-67
2023/08/18 11:29:45;;;;;;;5.20;2.10;;;28.70;13.10;;;;;;5057777;28;46482;-72
2023/08/18 11:32:12;;;;;;;4.43;1.73;;;28.80;12.90;;;;;;5058252;28;46495;-68
2023/08/18 11:34:38;;;;;;;5.17;2.13;;;28.80;12.90;;;;;;5063184;28;46422;-69
2023/08/18 11:37:10;;;;;;;6.20;1.90;;;28.90;11.50;;;;;;5066052;27;46468;-68
2023/08/18 11:39:37;;;;;;;3.73;2.07;;;28.70;11.50;;;;;;5066067;28;46435;-71
2023/08/18 11:42:08;;;;;;;3.43;1.90;;;28.50;11.20;;;;;;5063528;28;46546;-67
2023/08/18 11:44:34;;;;;;;4.57;2.07;;;28.50;11.10;;;;;;5065434;28;46376;-67
2023/08/18 11:47:00;;;;;;;3.20;1.90;;;28.50;11.20;;;;;;5065757;28;46403;-70
2023/08/18 11:49:26;;;;;;;3.90;2.17;;;28.50;12.10;;;;;;5062140;28;46564;-68
2023/08/18 11:52:05;;;;;;;10.10;2.10;;;28.50;12.10;;;;;;5060435;27;46533;-68
2023/08/18 11:54:36;;;;;;;14.33;2.30;;;28.60;10.70;;;;;;5065181;28;46497;-68
2023/08/18 11:57:04;;;;;;;2.90;1.60;;;28.60;10.40;;;;;;5070541;27;45880;-67
2023/08/18 11:59:30;;;;;;;4.30;2.00;;;28.60;10.30;;;;;;5060348;28;46752;-69
2023/08/18 12:01:56;;;;;;;5.60;2.43;;;28.60;10.90;;;;;;5062959;28;46343;-68
2023/08/18 12:04:31;;;;;;;5.33;2.10;;;28.90;9.90;;;;;;5059844;28;46644;-70
2023/08/18 12:06:58;;;;;;;3.00;1.83;;;28.90;8.90;;;;;;5062809;27;46447;-70
2023/08/18 12:09:24;;;;;;;5.60;2.00;;;28.90;9.70;;;;;;5063307;28;46379;-66
2023/08/18 12:11:51;;;;;;;3.27;1.87;;;29.10;9.70;;;;;;5079258;27;46263;-66
2023/08/18 12:14:17;;;;;;;3.80;1.83;;;29.20;9.50;;;;;;5061605;28;46836;-70
2023/08/18 12:16:43;;;;;;;5.00;2.00;;;29.30;8.40;;;;;;5062755;28;46721;-68
2023/08/18 12:19:10;;;;;;;3.57;2.00;;;29.30;8.90;;;;;;5062914;28;46406;-65
2023/08/18 12:21:36;;;;;;;4.33;2.00;;;29.30;7.60;;;;;;5064553;28;49503;-70
2023/08/18 12:24:06;;;;;;;4.00;1.73;;;29.30;8.40;;;;;;5049913;28;46374;-67
2023/08/18 12:26:37;;;;;;;6.80;1.87;;;29.10;6.80;;;;;;5061033;28;46374;-70
2023/08/18 12:29:03;;;;;;;4.33;1.50;;;29.10;7.60;;;;;;5060352;28;46385;-68
2023/08/18 12:31:30;;;;;;;3.13;1.80;;;29.20;7.70;;;;;;5056611;28;46779;-68
2023/08/18 12:33:56;;;;;;;3.37;1.87;;;29.30;7.90;;;;;;5056719;28;46872;-70
2023/08/18 12:36:22;;;;;;;3.07;1.73;;;29.40;6.50;;;;;;5061119;28;46505;-70
2023/08/18 12:38:48;;;;;;;3.10;1.60;;;29.40;7.30;;;;;;5059832;28;46555;-70
2023/08/18 12:41:14;;;;;;;3.70;1.50;;;29.50;7.10;;;;;;5059404;28;46193;-70
2023/08/18 12:43:41;;;;;;;3.07;1.80;;;29.60;7.10;;;;;;5060584;28;45882;-70